Time;durP1;ratioP1;P1;durP2;ratioP2;P2;SDS_P1;SDS_P2;PMS_P1;PMS_P2;Temp;Humidity;BMP_temperature;BMP_pressure;BME280_temperature;BME280_humidity;BME280_pressure;Samples;Min_cycle;Max_cycle;Signal;HPM_P1;HPM_P2
2022/08/10 00:02:38;;;;;;;35.13;6.72;;;;;;;25.05;60.77;100410.59;5094832;28;20086;-78
2022/08/10 00:05:04;;;;;;;14.50;5.82;;;;;;;25.06;60.60;100413.16;5093334;28;20043;-78
2022/08/10 00:07:29;;;;;;;131.55;13.75;;;;;;;25.07;60.42;100400.22;5093475;28;20020;-77
2022/08/10 00:09:55;;;;;;;28.55;5.80;;;;;;;25.06;60.62;100402.13;5093416;28;20111;-78
2022/08/10 00:12:20;;;;;;;22.85;5.53;;;;;;;25.08;60.73;100419.25;5091966;28;20044;-78
2022/08/10 00:14:46;;;;;;;16.52;5.72;;;;;;;25.07;60.45;100409.34;5093392;28;20040;-78
2022/08/10 00:17:11;;;;;;;22.60;6.88;;;;;;;25.11;60.48;100409.69;5093309;28;20031;-78
2022/08/10 00:19:37;;;;;;;24.40;6.43;;;;;;;24.99;60.60;100403.25;5093204;28;20028;-78
2022/08/10 00:22:02;;;;;;;22.38;6.47;;;;;;;24.97;60.39;100394.38;5093160;28;20028;-77
2022/08/10 00:24:28;;;;;;;73.80;8.95;;;;;;;24.87;60.38;100398.47;5092917;28;20118;-77
2022/08/10 00:26:53;;;;;;;24.95;6.18;;;;;;;24.90;60.20;100403.53;5093202;28;20097;-77
2022/08/10 00:29:18;;;;;;;18.67;5.53;;;;;;;24.88;60.42;100397.41;5093092;28;20016;-77
2022/08/10 00:31:44;;;;;;;28.05;5.13;;;;;;;24.84;60.43;100414.56;5093240;28;20023;-78
2022/08/10 00:34:09;;;;;;;11.43;5.07;;;;;;;24.81;60.28;100399.38;5092766;28;20020;-78
2022/08/10 00:36:35;;;;;;;7.50;5.00;;;;;;;24.79;60.27;100408.88;5098244;28;20028;-79
2022/08/10 00:39:00;;;;;;;19.45;5.30;;;;;;;24.72;60.49;100397.91;5097952;28;20048;-78
2022/08/10 00:41:26;;;;;;;20.55;5.13;;;;;;;24.66;60.57;100393.31;5098758;28;20482;-77
2022/08/10 00:43:51;;;;;;;17.55;5.03;;;;;;;24.75;60.18;100402.13;5093463;28;20035;-78
2022/08/10 00:46:16;;;;;;;14.10;5.18;;;;;;;24.73;60.23;100402.38;5092411;28;20016;-78
2022/08/10 00:48:42;;;;;;;12.75;5.70;;;;;;;24.68;60.51;100415.06;5093318;28;20051;-78
2022/08/10 00:51:08;;;;;;;27.08;5.95;;;;;;;24.70;60.52;100411.06;5093600;28;20389;-78
2022/08/10 00:53:33;;;;;;;11.38;4.60;;;;;;;24.65;60.34;100410.88;5092782;28;20506;-78
2022/08/10 00:56:00;;;;;;;37.17;6.00;;;;;;;24.58;60.42;100409.25;5091522;28;20020;-77
2022/08/10 00:58:25;;;;;;;15.30;4.95;;;;;;;24.63;60.30;100414.91;5092799;28;20099;-78
2022/08/10 01:00:51;;;;;;;27.98;5.68;;;;;;;24.61;60.28;100404.13;5092479;28;20107;-77
2022/08/10 01:03:16;;;;;;;8.30;4.68;;;;;;;24.58;60.40;100410.09;5092130;28;20433;-78
2022/08/10 01:06:04;;;;;;;11.25;4.90;;;;;;;24.59;60.25;100409.00;5090763;28;20469;-78
2022/08/10 01:08:42;;;;;;;11.07;4.47;;;;;;;24.56;60.53;100419.59;5091983;28;20107;-78
2022/08/10 01:11:42;;;;;;;14.60;4.88;;;;;;;24.52;60.47;100401.88;5092158;28;20039;-77
2022/08/10 01:14:24;;;;;;;27.08;6.40;;;;;;;24.48;60.67;100419.88;5092234;28;20035;-77
2022/08/10 01:16:56;;;;;;;19.63;5.82;;;;;;;24.48;60.38;100404.22;5092011;28;20024;-78
2022/08/10 01:19:36;;;;;;;;;;;;;;;24.53;60.12;100411.78;5092331;28;20027;-78
2022/08/10 01:22:27;;;;;;;29.05;5.88;;;;;;;24.51;60.04;100401.03;5092048;28;20368;-78
2022/08/10 01:25:09;;;;;;;17.95;5.07;;;;;;;24.52;59.90;100410.97;5091905;28;20044;-77
2022/08/10 01:27:56;;;;;;;9.18;4.70;;;;;;;24.52;59.82;100405.47;5091801;28;20026;-77
2022/08/10 01:30:23;;;;;;;18.50;6.20;;;;;;;24.53;59.86;100396.13;5091638;28;20031;-77
2022/08/10 01:33:10;;;;;;;23.00;6.90;;;;;;;24.45;59.90;100377.16;5091726;28;20031;-77
2022/08/10 01:35:49;;;;;;;14.57;6.50;;;;;;;24.50;59.45;100396.56;5091478;28;20028;-77
2022/08/10 01:38:42;;;;;;;11.00;5.35;;;;;;;24.52;59.46;100402.72;5091484;28;20080;-79
2022/08/10 01:41:28;;;;;;;14.73;5.00;;;;;;;24.60;59.19;100396.09;5091166;28;20048;-77
2022/08/10 01:44:09;;;;;;;20.05;7.15;;;;;;;24.60;59.29;100396.94;5091433;28;20020;-78
2022/08/10 01:46:38;;;;;;;15.83;5.47;;;;;;;24.56;59.30;100401.19;5091737;28;20024;-78
2022/08/10 01:49:08;;;;;;;12.23;5.03;;;;;;;24.56;59.13;100398.44;5091353;28;20308;-77
2022/08/10 01:51:48;;;;;;;8.05;4.88;;;;;;;24.53;59.17;100390.63;5091247;28;20453;-78
2022/08/10 01:54:19;;;;;;;11.15;5.88;;;;;;;24.59;58.77;100395.25;5091279;28;20504;-77
2022/08/10 01:56:48;;;;;;;29.40;6.18;;;;;;;24.59;58.90;100406.25;5091151;28;20411;-78
2022/08/10 01:59:20;;;;;;;8.80;5.30;;;;;;;24.55;59.05;100405.03;5091389;28;20028;-78
2022/08/10 02:01:55;;;;;;;14.07;4.70;;;;;;;24.53;58.78;100396.13;5090033;28;20035;-78
2022/08/10 02:04:23;;;;;;;12.77;5.30;;;;;;;24.56;58.90;100403.94;5091194;28;20070;-78
2022/08/10 02:06:50;;;;;;;8.18;5.38;;;;;;;24.58;58.89;100412.84;5089810;28;20020;-78
2022/08/10 02:09:20;;;;;;;10.13;5.28;;;;;;;24.62;58.44;100405.81;5094446;28;20035;-79
2022/08/10 02:11:49;;;;;;;5.80;4.80;;;;;;;24.58;58.34;100398.22;5094123;28;20048;-79
2022/08/10 02:14:17;;;;;;;8.95;4.78;;;;;;;24.67;58.30;100395.00;5095537;28;20059;-79
2022/08/10 02:16:44;;;;;;;11.90;5.43;;;;;;;24.66;57.89;100390.56;5095120;28;20061;-79
2022/08/10 02:19:16;;;;;;;13.05;5.65;;;;;;;24.66;58.13;100395.22;5091605;28;20035;-79
2022/08/10 02:21:45;;;;;;;12.33;5.37;;;;;;;24.70;57.77;100401.97;5091939;28;20027;-77
2022/08/10 02:24:13;;;;;;;41.22;6.80;;;;;;;24.68;57.70;100404.06;5092011;28;20028;-78
2022/08/10 02:26:43;;;;;;;11.82;5.78;;;;;;;24.67;57.59;100396.91;5091474;28;20020;-79
2022/08/10 02:29:12;;;;;;;5.68;4.60;;;;;;;24.60;57.47;100407.94;5091099;28;20020;-79
2022/08/10 02:31:39;;;;;;;17.27;4.85;;;;;;;24.66;57.24;100412.56;5091012;28;20512;-79
2022/08/10 02:34:07;;;;;;;10.25;5.82;;;;;;;24.67;56.96;100414.25;5091114;28;20489;-78
2022/08/10 02:36:34;;;;;;;12.50;5.50;;;;;;;24.72;56.67;100417.16;5091122;28;20047;-80
2022/08/10 02:39:03;;;;;;;6.80;5.20;;;;;;;24.70;56.88;100408.31;5090803;28;20051;-78
2022/08/10 02:41:41;;;;;;;16.15;5.05;;;;;;;24.74;56.46;100408.69;5089826;28;20019;-77
2022/08/10 02:44:12;;;;;;;10.90;4.57;;;;;;;24.68;56.45;100396.66;5091021;28;20047;-77
2022/08/10 02:46:46;;;;;;;24.25;6.05;;;;;;;24.75;56.46;100408.47;5090926;28;20016;-77
2022/08/10 02:49:25;;;;;;;29.05;7.03;;;;;;;24.69;56.32;100392.88;5090796;28;20027;-78
2022/08/10 02:52:01;;;;;;;10.15;5.55;;;;;;;24.71;56.25;100400.88;5090839;28;20039;-78
2022/08/10 02:54:35;;;;;;;15.98;5.78;;;;;;;24.72;55.94;100403.41;5090849;28;20024;-78
2022/08/10 02:57:06;;;;;;;19.35;6.78;;;;;;;24.71;56.23;100415.47;5089974;28;20477;-78
2022/08/10 02:59:41;;;;;;;12.70;6.03;;;;;;;24.75;55.81;100416.72;5094545;28;20024;-79
2022/08/10 03:02:13;;;;;;;13.70;5.43;;;;;;;24.77;55.50;100417.34;5090730;28;20106;-79
2022/08/10 03:04:43;;;;;;;8.55;4.97;;;;;;;24.74;55.48;100406.78;5090734;28;20035;-79
2022/08/10 03:07:12;;;;;;;12.02;5.63;;;;;;;24.76;55.42;100418.44;5090742;28;20030;-77
2022/08/10 03:09:39;;;;;;;9.10;5.35;;;;;;;24.63;55.46;100429.50;5092375;28;20030;-77
2022/08/10 03:12:07;;;;;;;8.80;5.13;;;;;;;24.68;55.69;100426.91;5094010;28;20055;-78
2022/08/10 03:14:36;;;;;;;7.28;4.85;;;;;;;24.66;55.39;100418.06;5094317;28;20035;-77
2022/08/10 03:17:03;;;;;;;7.38;5.20;;;;;;;24.67;55.55;100425.25;5094136;28;20024;-78
2022/08/10 03:19:32;;;;;;;10.82;5.03;;;;;;;24.66;55.46;100434.56;5092873;28;20491;-78
2022/08/10 03:21:58;;;;;;;17.00;5.35;;;;;;;24.71;55.41;100426.47;5094014;28;20022;-77
2022/08/10 03:24:26;;;;;;;9.20;5.88;;;;;;;24.68;55.33;100426.91;5093896;28;20032;-78
2022/08/10 03:26:54;;;;;;;19.40;5.97;;;;;;;24.70;55.52;100433.06;5093861;28;20069;-79
2022/08/10 03:29:20;;;;;;;13.20;6.00;;;;;;;24.62;55.50;100421.47;5094110;28;20112;-77
2022/08/10 03:31:48;;;;;;;14.15;6.18;;;;;;;24.61;55.47;100415.16;5092616;28;20078;-77
2022/08/10 03:34:15;;;;;;;9.23;6.80;;;;;;;24.67;55.44;100430.75;5094295;28;20028;-78
2022/08/10 03:36:42;;;;;;;9.07;5.20;;;;;;;24.63;55.69;100432.25;5093873;28;20034;-79
2022/08/10 03:39:08;;;;;;;24.40;6.82;;;;;;;24.63;55.75;100429.50;5092681;28;20016;-79
2022/08/10 03:41:36;;;;;;;9.02;5.53;;;;;;;24.59;55.94;100424.66;5093982;28;20055;-79
2022/08/10 03:44:04;;;;;;;26.35;6.72;;;;;;;24.62;55.96;100425.06;5094963;28;20474;-78
2022/08/10 03:46:32;;;;;;;31.90;7.30;;;;;;;24.66;55.59;100433.72;5094499;28;20084;-78
2022/08/10 03:49:01;;;;;;;11.43;5.20;;;;;;;24.64;55.57;100439.44;5095175;28;20121;-78
2022/08/10 03:51:28;;;;;;;23.17;6.60;;;;;;;24.56;55.93;100412.19;5094913;28;20055;-78
2022/08/10 03:53:53;;;;;;;19.58;6.88;;;;;;;24.64;55.82;100425.69;5093097;28;20047;-78
2022/08/10 03:56:20;;;;;;;14.35;6.32;;;;;;;24.66;55.78;100433.72;5094330;28;20075;-78
2022/08/10 03:58:46;;;;;;;11.05;5.72;;;;;;;24.66;55.42;100430.97;5093875;28;20020;-78
2022/08/10 04:01:14;;;;;;;12.05;5.55;;;;;;;24.73;55.42;100435.38;5093609;28;20028;-78
2022/08/10 04:03:39;;;;;;;26.83;6.47;;;;;;;24.73;55.29;100435.38;5093214;28;20031;-78
2022/08/10 04:06:05;;;;;;;19.15;6.93;;;;;;;24.76;55.18;100439.59;5093626;28;20398;-79
2022/08/10 04:08:31;;;;;;;17.95;10.23;;;;;;;24.86;54.95;100439.97;5093448;28;20028;-80
2022/08/10 04:10:57;;;;;;;9.52;5.45;;;;;;;24.89;54.75;100432.09;5093267;28;20113;-78
2022/08/10 04:13:22;;;;;;;22.38;6.25;;;;;;;24.86;54.71;100438.03;5092953;28;20152;-79
2022/08/10 04:15:48;;;;;;;14.45;6.82;;;;;;;24.98;54.72;100440.09;5093080;28;20059;-78
2022/08/10 04:18:14;;;;;;;21.05;5.93;;;;;;;25.01;54.86;100442.41;5092903;28;20125;-78
2022/08/10 04:20:54;;;;;;;19.15;6.70;;;;;;;25.07;54.75;100441.50;5092876;28;20019;-77
2022/08/10 04:23:23;;;;;;;14.85;5.90;;;;;;;25.05;54.87;100444.47;5092660;28;20020;-77
2022/08/10 04:25:51;;;;;;;17.33;6.30;;;;;;;25.10;54.77;100455.69;5092566;28;20040;-79
2022/08/10 04:28:17;;;;;;;15.38;5.28;;;;;;;25.11;54.99;100449.09;5092720;28;20092;-80
2022/08/10 04:30:45;;;;;;;13.60;5.88;;;;;;;25.19;54.55;100456.25;5092653;28;20039;-79
2022/08/10 04:33:13;;;;;;;21.27;6.50;;;;;;;25.20;54.65;100439.47;5092509;28;20058;-78
2022/08/10 04:35:40;;;;;;;20.88;6.47;;;;;;;25.19;54.78;100446.06;5092605;28;20028;-77
2022/08/10 04:38:08;;;;;;;31.15;6.90;;;;;;;25.21;54.56;100443.09;5092579;28;20107;-78
2022/08/10 04:40:33;;;;;;;17.48;5.15;;;;;;;25.22;54.57;100450.28;5092455;28;20024;-78
2022/08/10 04:43:01;;;;;;;39.88;7.10;;;;;;;25.25;54.29;100458.09;5091081;28;20466;-78
2022/08/10 04:45:26;;;;;;;12.27;5.65;;;;;;;25.27;54.30;100461.47;5092328;28;20471;-78
2022/08/10 04:47:51;;;;;;;23.98;6.45;;;;;;;25.25;54.23;100460.84;5092330;28;20024;-79
2022/08/10 04:50:17;;;;;;;16.23;5.68;;;;;;;25.23;54.19;100441.78;5092281;28;20469;-78
2022/08/10 04:52:43;;;;;;;13.27;5.63;;;;;;;25.23;54.15;100457.44;5092278;28;20024;-77
2022/08/10 04:55:08;;;;;;;10.93;5.35;;;;;;;25.29;54.27;100440.03;5092090;28;20126;-78
2022/08/10 04:57:34;;;;;;;30.10;6.72;;;;;;;25.33;54.01;100449.53;5092123;28;20024;-78
2022/08/10 04:59:59;;;;;;;24.40;5.68;;;;;;;25.32;53.93;100440.44;5091888;28;20473;-78
2022/08/10 05:02:24;;;;;;;9.88;5.03;;;;;;;25.34;54.19;100434.72;5093326;28;20024;-78
2022/08/10 05:04:50;;;;;;;44.65;6.15;;;;;;;25.38;53.99;100458.00;5091760;28;20038;-78
2022/08/10 05:07:16;;;;;;;21.30;5.80;;;;;;;25.43;53.95;100444.38;5092032;28;20035;-78
2022/08/10 05:09:41;;;;;;;22.38;7.18;;;;;;;25.51;53.96;100444.09;5091895;28;20032;-78
2022/08/10 05:12:07;;;;;;;35.58;7.30;;;;;;;25.54;53.71;100438.16;5091679;28;20051;-78
2022/08/10 05:14:33;;;;;;;22.70;6.35;;;;;;;25.59;53.64;100449.34;5091884;28;20039;-78
2022/08/10 05:16:59;;;;;;;12.68;6.20;;;;;;;25.69;53.59;100451.56;5093942;28;20031;-79
2022/08/10 05:19:25;;;;;;;31.13;6.70;;;;;;;25.76;53.26;100452.34;5095929;28;20043;-79
2022/08/10 05:21:51;;;;;;;12.63;4.85;;;;;;;25.81;53.37;100455.25;5094670;28;20034;-78
2022/08/10 05:24:16;;;;;;;23.88;5.97;;;;;;;25.82;52.75;100441.25;5096856;28;20039;-78
2022/08/10 05:26:42;;;;;;;32.78;6.82;;;;;;;25.95;52.74;100445.78;5092584;28;20023;-78
2022/08/10 05:29:07;;;;;;;15.52;5.93;;;;;;;26.04;52.46;100460.09;5092637;28;20385;-78
2022/08/10 05:31:33;;;;;;;16.63;5.75;;;;;;;26.12;52.10;100451.50;5092349;28;20469;-78
2022/08/10 05:33:58;;;;;;;35.45;6.28;;;;;;;26.18;51.83;100450.63;5092085;28;20031;-78
2022/08/10 05:36:24;;;;;;;16.92;4.82;;;;;;;26.25;51.86;100468.78;5091708;28;20397;-78
2022/08/10 05:38:50;;;;;;;19.48;6.15;;;;;;;26.19;51.79;100441.28;5091348;28;20054;-78
2022/08/10 05:41:16;;;;;;;12.63;5.50;;;;;;;26.31;51.42;100442.19;5091546;28;20116;-79
2022/08/10 05:43:42;;;;;;;9.98;4.63;;;;;;;26.45;51.29;100457.50;5091157;28;20040;-78
2022/08/10 05:46:08;;;;;;;17.77;5.47;;;;;;;26.48;51.23;100443.25;5091484;28;20052;-79
2022/08/10 05:48:35;;;;;;;29.48;5.22;;;;;;;26.62;50.57;100457.69;5090191;28;20562;-79
2022/08/10 05:51:02;;;;;;;28.17;4.97;;;;;;;26.69;50.21;100459.28;5092049;28;20030;-79
2022/08/10 05:53:28;;;;;;;23.13;5.75;;;;;;;26.73;50.21;100443.94;5092955;28;20028;-78
2022/08/10 05:55:54;;;;;;;12.15;5.22;;;;;;;26.82;50.19;100453.59;5092055;28;20028;-78
2022/08/10 05:58:19;;;;;;;11.38;5.60;;;;;;;26.85;49.89;100450.38;5091778;28;20032;-78
2022/08/10 06:00:52;;;;;;;14.40;6.50;;;;;;;26.85;49.94;100450.38;5091326;28;20032;-78
2022/08/10 06:03:23;;;;;;;25.05;6.70;;;;;;;26.87;49.82;100455.66;5091095;28;20028;-80
2022/08/10 06:05:48;;;;;;;48.90;6.40;;;;;;;26.86;49.86;100465.84;5091198;28;20161;-78
2022/08/10 06:08:22;;;;;;;15.68;5.30;;;;;;;26.86;49.92;100454.81;5091207;28;20512;-78
2022/08/10 06:10:52;;;;;;;24.95;4.97;;;;;;;26.88;50.02;100455.41;5091171;28;20024;-79
2022/08/10 06:16:09;;;;;;;31.90;5.70;;;;;;;26.99;50.16;100457.38;5091161;28;20096;-79
2022/08/10 06:18:35;;;;;;;20.90;4.65;;;;;;;27.10;49.82;100460.38;5090945;28;20023;-78
2022/08/10 06:21:02;;;;;;;21.33;5.95;;;;;;;27.11;50.04;100454.66;5090898;28;20114;-78
2022/08/10 06:23:29;;;;;;;11.23;4.88;;;;;;;27.16;50.04;100464.97;5090960;28;20055;-78
2022/08/10 06:25:55;;;;;;;12.60;4.68;;;;;;;27.18;49.63;100446.25;5091102;28;20036;-78
2022/08/10 06:28:23;;;;;;;28.52;5.10;;;;;;;27.26;49.67;100462.47;5090953;28;20040;-79
2022/08/10 06:30:51;;;;;;;29.05;5.45;;;;;;;27.27;49.38;100451.19;5090777;28;20020;-79
2022/08/10 06:33:19;;;;;;;28.25;5.57;;;;;;;27.35;49.05;100458.28;5090793;28;20031;-79
2022/08/10 06:35:50;;;;;;;30.30;5.35;;;;;;;27.35;49.12;100469.34;5091090;28;20035;-79
2022/08/10 06:38:17;;;;;;;32.95;5.25;;;;;;;27.25;49.11;100446.97;5090737;28;20105;-79
2022/08/10 06:40:46;;;;;;;27.48;5.63;;;;;;;27.37;49.27;100475.44;5090803;28;20020;-78
2022/08/10 06:43:15;;;;;;;29.33;5.63;;;;;;;27.40;49.03;100452.91;5090706;28;20032;-78
2022/08/10 06:45:54;;;;;;;24.00;6.55;;;;;;;27.48;49.03;100458.94;5094490;28;20028;-78
2022/08/10 06:48:25;;;;;;;15.95;3.90;;;;;;;27.63;48.63;100468.66;5094579;28;20023;-80
2022/08/10 06:51:03;;;;;;;40.58;6.68;;;;;;;27.66;48.58;100466.28;5096223;28;20024;-79
2022/08/10 06:53:45;;;;;;;37.88;5.50;;;;;;;27.71;48.56;100458.09;5100668;28;20077;-80
2022/08/10 06:56:15;;;;;;;16.77;5.43;;;;;;;27.78;48.30;100457.97;5100681;28;20028;-79
2022/08/10 06:58:48;;;;;;;11.32;7.03;;;;;;;27.79;48.18;100460.50;5097542;28;20024;-78
2022/08/10 07:01:19;;;;;;;34.30;5.75;;;;;;;27.84;47.83;100457.00;5094792;28;20031;-79
2022/08/10 07:03:56;;;;;;;31.10;5.13;;;;;;;27.82;47.75;100468.31;5093917;28;20024;-79
2022/08/10 07:06:23;;;;;;;38.60;5.53;;;;;;;27.80;47.93;100467.69;5095042;28;20055;-79
2022/08/10 07:08:50;;;;;;;17.20;4.75;;;;;;;27.85;47.84;100465.06;5094822;28;20024;-79
2022/08/10 07:11:19;;;;;;;34.83;5.35;;;;;;;27.84;47.58;100474.44;5094520;28;20032;-78
2022/08/10 07:13:46;;;;;;;9.70;4.38;;;;;;;27.84;47.35;100455.09;5094153;28;20047;-78
2022/08/10 07:16:13;;;;;;;13.43;3.53;;;;;;;27.95;47.42;100475.53;5093946;28;20032;-78
2022/08/10 07:18:41;;;;;;;11.70;4.93;;;;;;;28.03;47.59;100462.16;5093981;28;20392;-78
2022/08/10 07:21:09;;;;;;;29.45;11.45;;;;;;;28.10;47.31;100457.34;5093853;28;20040;-78
2022/08/10 07:23:35;;;;;;;16.23;4.88;;;;;;;28.17;47.89;100475.72;5093892;28;20039;-79
2022/08/10 07:26:01;;;;;;;24.17;4.88;;;;;;;28.24;47.37;100454.31;5093805;28;20489;-78
2022/08/10 07:28:30;;;;;;;28.05;5.63;;;;;;;28.27;46.20;100467.66;5093528;28;20508;-79
2022/08/10 07:30:57;;;;;;;20.38;4.25;;;;;;;28.29;45.78;100465.47;5093685;28;20508;-78
2022/08/10 07:33:23;;;;;;;12.05;3.72;;;;;;;28.36;46.40;100463.44;5093363;28;20020;-79
2022/08/10 07:35:49;;;;;;;19.02;4.18;;;;;;;28.45;46.14;100475.78;5093553;28;20027;-79
2022/08/10 07:38:21;;;;;;;24.20;5.15;;;;;;;28.51;46.48;100447.13;5092435;28;20028;-80
2022/08/10 07:40:48;;;;;;;60.73;6.03;;;;;;;28.56;45.61;100450.84;5093676;28;20059;-80
2022/08/10 07:43:16;;;;;;;26.92;6.43;;;;;;;28.60;44.94;100454.81;5093430;28;20377;-78
2022/08/10 07:45:43;;;;;;;22.60;6.32;;;;;;;28.72;45.16;100459.47;5093362;28;20047;-78
2022/08/10 07:48:14;;;;;;;20.30;4.57;;;;;;;28.79;45.87;100455.47;5093485;28;20024;-79
2022/08/10 07:50:40;;;;;;;12.35;6.07;;;;;;;28.86;45.63;100460.88;5093889;28;20024;-78
2022/08/10 07:53:09;;;;;;;13.13;4.40;;;;;;;28.94;45.51;100475.16;5093534;28;20023;-80
2022/08/10 07:55:36;;;;;;;26.75;5.95;;;;;;;28.99;44.85;100474.41;5093157;28;20036;-79
2022/08/10 07:58:03;;;;;;;21.35;5.20;;;;;;;29.04;44.17;100463.41;5093295;28;20480;-79
2022/08/10 08:00:30;;;;;;;25.98;5.80;;;;;;;28.99;44.22;100455.03;5093678;28;20024;-78
2022/08/10 08:02:58;;;;;;;12.20;4.15;;;;;;;29.15;43.88;100466.13;5093201;28;20024;-78
2022/08/10 08:05:26;;;;;;;32.25;5.65;;;;;;;29.26;44.10;100455.25;5093135;28;20028;-78
2022/08/10 08:07:54;;;;;;;14.82;4.35;;;;;;;29.31;44.57;100463.63;5091956;28;20031;-80
2022/08/10 08:10:23;;;;;;;16.05;4.43;;;;;;;29.33;44.45;100462.28;5074919;28;20101;-80
2022/08/10 08:12:51;;;;;;;29.65;4.55;;;;;;;29.28;44.39;100458.59;5093580;28;20040;-80
2022/08/10 08:15:19;;;;;;;25.77;4.57;;;;;;;29.39;44.08;100455.72;5093271;28;20039;-78
2022/08/10 08:17:49;;;;;;;19.25;4.47;;;;;;;29.45;44.09;100460.28;5091950;28;20487;-78
2022/08/10 08:20:16;;;;;;;27.23;4.60;;;;;;;29.65;43.79;100459.75;5092936;28;20028;-79
2022/08/10 08:22:44;;;;;;;23.17;4.63;;;;;;;29.65;43.69;100466.16;5057889;28;20028;-79
2022/08/10 08:25:11;;;;;;;19.70;4.38;;;;;;;29.66;42.90;100450.38;5095947;28;20039;-79
2022/08/10 08:27:39;;;;;;;35.22;4.95;;;;;;;29.76;42.46;100453.28;5097206;28;20040;-77
2022/08/10 08:30:08;;;;;;;19.10;5.13;;;;;;;29.84;42.39;100458.44;5095455;28;20059;-79
2022/08/10 08:32:40;;;;;;;27.60;4.40;;;;;;;29.88;42.30;100465.13;5096418;28;20111;-78
2022/08/10 08:35:10;;;;;;;44.67;13.35;;;;;;;29.92;42.02;100457.97;5096322;28;20433;-78
2022/08/10 08:37:40;;;;;;;17.80;4.97;;;;;;;30.01;42.76;100464.75;5091418;28;20036;-79
2022/08/10 08:40:29;;;;;;;36.40;5.10;;;;;;;29.98;42.96;100454.19;5093202;28;20032;-79
2022/08/10 08:43:19;;;;;;;17.92;3.70;;;;;;;30.09;43.00;100456.00;5092351;28;20039;-79
2022/08/10 08:45:50;;;;;;;10.10;3.65;;;;;;;30.12;42.99;100460.22;5092394;28;20043;-79
2022/08/10 08:48:26;;;;;;;23.50;4.57;;;;;;;30.09;43.22;100457.94;5093470;28;20032;-80
2022/08/10 08:51:17;;;;;;;34.55;5.32;;;;;;;30.11;43.60;100464.91;5093470;28;20038;-79
2022/08/10 08:53:57;;;;;;;17.85;3.45;;;;;;;30.28;43.76;100464.00;5093067;28;20028;-78
2022/08/10 08:56:53;;;;;;;26.05;4.38;;;;;;;30.38;43.99;100476.09;5090650;28;20031;-78
2022/08/10 08:59:18;;;;;;;24.73;4.47;;;;;;;30.48;43.16;100473.47;5090730;28;20397;-80
2022/08/10 09:01:59;;;;;;;10.93;3.47;;;;;;;30.58;42.72;100475.53;5092204;28;20019;-78
2022/08/10 09:04:54;;;;;;;8.18;3.83;;;;;;;30.69;42.96;100483.72;5092033;28;20040;-79
2022/08/10 09:07:29;;;;;;;6.07;3.30;;;;;;;30.73;42.62;100479.31;5081843;28;20557;-82
2022/08/10 09:10:13;;;;;;;13.02;4.90;;;;;;;30.75;42.29;100490.16;5091620;28;20473;-80
2022/08/10 09:12:58;;;;;;;6.65;4.25;;;;;;;30.76;42.38;100500.19;5091941;28;20505;-80
2022/08/10 09:15:45;;;;;;;20.73;4.10;;;;;;;30.77;42.21;100490.72;5092238;28;20037;-82
2022/08/10 09:18:27;;;;;;;14.05;3.72;;;;;;;30.76;42.49;100495.44;5092468;28;20097;-81
2022/08/10 09:20:59;;;;;;;15.15;3.83;;;;;;;30.76;42.46;100492.66;5092037;28;20105;-81
2022/08/10 09:23:38;;;;;;;8.70;4.88;;;;;;;30.91;42.01;100511.47;5073560;28;20058;-80
2022/08/10 09:26:48;;;;;;;9.30;3.80;;;;;;;31.05;42.20;100514.69;5091714;28;20454;-82
2022/08/10 09:29:24;;;;;;;4.25;3.17;;;;;;;31.04;41.94;100499.94;5092304;28;20097;-81
2022/08/10 09:32:06;;;;;;;8.57;4.20;;;;;;;31.03;42.40;100509.41;5092364;28;20098;-79
2022/08/10 09:35:10;;;;;;;11.10;3.33;;;;;;;31.06;42.67;100516.38;5091600;28;20024;-79
2022/08/10 09:37:58;;;;;;;7.45;4.40;;;;;;;31.04;42.22;100513.84;5090615;28;20032;-82
2022/08/10 09:40:42;;;;;;;10.55;3.88;;;;;;;31.01;42.29;100524.66;5092329;28;20184;-80
2022/08/10 09:43:19;;;;;;;8.90;4.03;;;;;;;30.94;42.07;100512.88;5091686;28;20401;-80
2022/08/10 09:46:13;;;;;;;6.68;3.35;;;;;;;30.99;41.76;100524.91;5091830;28;20546;-89
2022/08/10 09:48:59;;;;;;;9.30;3.85;;;;;;;31.08;41.17;100522.50;5093282;28;20020;-85
2022/08/10 09:51:30;;;;;;;18.45;3.97;;;;;;;31.10;41.00;100520.31;5093751;28;20040;-83
2022/08/10 09:54:19;;;;;;;17.13;4.13;;;;;;;31.15;41.39;100512.88;5093507;28;20537;-83
2022/08/10 09:57:06;;;;;;;16.83;4.72;;;;;;;31.25;41.04;100512.94;5093236;28;20024;-77
2022/08/10 10:00:00;;;;;;;11.50;3.33;;;;;;;31.47;40.96;100509.25;5092558;28;20043;-79
2022/08/10 10:02:53;;;;;;;12.48;4.15;;;;;;;31.61;40.10;100516.09;5094563;28;20050;-78
2022/08/10 10:06:10;;;;;;;11.05;4.22;;;;;;;31.56;39.99;100505.75;5095247;28;20486;-78
2022/08/10 10:08:50;;;;;;;11.95;4.15;;;;;;;31.63;40.25;100505.53;5086201;28;20055;-77
2022/08/10 10:11:29;;;;;;;10.57;3.55;;;;;;;31.63;39.91;100511.09;5090298;28;20085;-78
2022/08/10 10:14:15;;;;;;;20.27;4.97;;;;;;;31.71;39.59;100518.97;5091793;28;20032;-78
2022/08/10 10:17:01;;;;;;;13.02;4.07;;;;;;;31.79;39.54;100521.22;5089802;28;20047;-78
2022/08/10 10:19:49;;;;;;;13.80;4.07;;;;;;;31.81;39.47;100508.72;5093186;28;20142;-78
2022/08/10 10:22:40;;;;;;;9.65;3.70;;;;;;;31.97;39.04;100509.69;5094774;28;20054;-78
2022/08/10 10:25:20;;;;;;;8.32;4.32;;;;;;;32.04;39.08;100506.69;5095305;28;20036;-78
2022/08/10 10:28:17;;;;;;;14.85;3.97;;;;;;;32.13;38.84;100500.34;5095063;28;20035;-79
2022/08/10 10:31:10;;;;;;;7.95;5.10;;;;;;;32.19;38.85;100493.72;5094430;28;20086;-79
2022/08/10 10:34:01;;;;;;;20.60;4.82;;;;;;;32.20;38.90;100500.94;5095109;28;20074;-79
2022/08/10 10:36:28;;;;;;;18.33;5.13;;;;;;;32.27;38.59;100509.88;5093573;28;20032;-79
2022/08/10 10:38:57;;;;;;;18.08;4.25;;;;;;;32.23;37.92;100494.81;5094982;28;20515;-78
2022/08/10 10:41:32;;;;;;;16.35;5.43;;;;;;;32.18;38.30;100497.59;5094530;28;20035;-79
2022/08/10 10:44:03;;;;;;;5.72;4.15;;;;;;;32.36;38.02;100499.06;5095501;28;20106;-78
2022/08/10 10:47:01;;;;;;;10.23;4.20;;;;;;;32.31;38.26;100497.09;5093901;28;20023;-78
2022/08/10 10:49:51;;;;;;;24.63;4.43;;;;;;;32.38;37.80;100501.59;5058487;28;20044;-79
2022/08/10 10:52:43;;;;;;;12.95;3.35;;;;;;;32.43;37.56;100504.38;5093702;28;20096;-79
2022/08/10 10:55:18;;;;;;;4.47;3.15;;;;;;;32.43;37.18;100504.38;5091913;28;20085;-78
2022/08/10 10:58:35;;;;;;;8.50;4.35;;;;;;;32.57;38.13;100494.47;5094388;28;20024;-79
2022/08/10 11:01:22;;;;;;;8.35;3.97;;;;;;;32.76;37.43;100493.69;5075534;28;20505;-79
2022/08/10 11:03:47;;;;;;;10.23;4.10;;;;;;;32.88;37.11;100496.22;5072543;28;20107;-78
2022/08/10 11:06:45;;;;;;;10.82;3.50;;;;;;;32.86;37.01;100504.03;5094215;28;20031;-78
2022/08/10 11:09:39;;;;;;;6.05;3.95;;;;;;;32.69;37.23;100489.50;5092724;28;20028;-78
2022/08/10 11:12:26;;;;;;;14.90;4.55;;;;;;;32.63;37.67;100498.97;5091445;28;20047;-78
2022/08/10 11:15:11;;;;;;;16.52;5.07;;;;;;;32.75;37.47;100502.34;5093102;28;20052;-78
2022/08/10 11:17:48;;;;;;;12.43;3.75;;;;;;;32.70;36.82;100505.94;5092779;28;20032;-79
2022/08/10 11:20:22;;;;;;;20.65;4.55;;;;;;;32.70;37.06;100499.53;5094110;28;20031;-77
2022/08/10 11:23:14;;;;;;;19.35;5.15;;;;;;;32.71;37.67;100484.50;5094399;28;20115;-78
2022/08/10 11:25:43;;;;;;;13.63;4.07;;;;;;;32.43;36.80;100485.75;5094013;28;20027;-78
2022/08/10 11:28:35;;;;;;;11.23;4.30;;;;;;;32.37;37.24;100466.50;5092468;28;20092;-78
2022/08/10 11:31:08;;;;;;;11.60;4.50;;;;;;;32.38;37.08;100504.38;5091833;28;20106;-79
2022/08/10 11:33:45;;;;;;;9.65;4.43;;;;;;;32.41;37.69;100506.63;5096307;28;20080;-78
2022/08/10 11:37:12;;;;;;;8.35;4.20;;;;;;;32.53;37.15;100499.72;5094991;28;20401;-79
2022/08/10 11:39:43;;;;;;;15.65;4.80;;;;;;;32.53;36.96;100502.50;5087395;28;20036;-78
2022/08/10 11:42:31;;;;;;;11.35;4.45;;;;;;;32.69;37.60;100511.78;5096015;28;20116;-77
2022/08/10 11:45:02;;;;;;;26.67;5.15;;;;;;;32.72;37.38;100498.13;5095569;28;20081;-79
2022/08/10 11:47:52;;;;;;;6.43;3.47;;;;;;;32.81;36.70;100501.25;5094654;28;20048;-78
2022/08/10 11:50:21;;;;;;;13.95;4.93;;;;;;;32.88;36.68;100496.22;5092634;28;20454;-78